Station History

Weather Underground - logo

Station Historical Data
Daily Summary for Nil La, TWC- Units:  Both    English   Metric
« Previous Day
Next Day »
Daily Weekly Monthly Yearly Custom
  High: Low: Average:
Temperature: 62.3 °F /  16.8 °C 47.7 °F /  8.7 °C 53.3 °F /  11.8 °C
Dew Point: 53.1 °F /  11.7 °C 46.6 °F /  8.1 °C 49.8 °F /  9.9 °C
Humidity: 97 % 69 % 89 %
Wind Speed: 3.5 mph /  5.6 km/h - 0.4 mph /  0.6 km/h
Wind Gust: 2 mph /  3.2 km/h - -
Wind:- - South
Pressure: 30.36 in /  1028 hPa 30.28 in /  1025.3 hPa -
Precipitation: 0.01 in /  0.25 mm    
Historical Graphs
 
 
Tabular Data for Nil La, TWC-
Time Temperature Dew Point Pressure Wind Wind Speed Wind Gust Humidity Rainfall Rate (Hourly)
00:04 48.8 °F /  9.3 °C 47.4 °F /  8.6 °C 30.28 in /  1025.3 hPa Calm     95 % 0 in /  0 mm
00:09 48.8 °F /  9.3 °C 47.7 °F /  8.7 °C 30.28 in /  1025.3 hPa Calm     96 % 0 in /  0 mm
00:14 48.6 °F /  9.2 °C 47.2 °F /  8.4 °C 30.28 in /  1025.3 hPa Calm     95 % 0 in /  0 mm
00:20 48.5 °F /  9.2 °C 47.4 °F /  8.6 °C 30.28 in /  1025.3 hPa Calm     96 % 0 in /  0 mm
00:24 48.5 °F /  9.2 °C 47.4 °F /  8.6 °C 30.28 in /  1025.3 hPa Calm     96 % 0 in /  0 mm
00:29 48.7 °F /  9.3 °C 47.6 °F /  8.7 °C 30.28 in /  1025.3 hPa Calm     96 % 0 in /  0 mm
00:34 48.9 °F /  9.4 °C 47.8 °F /  8.8 °C 30.28 in /  1025.3 hPa Calm     96 % 0 in /  0 mm
00:39 49.1 °F /  9.5 °C 48 °F /  8.9 °C 30.28 in /  1025.3 hPa Calm     96 % 0 in /  0 mm
00:44 49.3 °F /  9.6 °C 48.2 °F /  9 °C 30.29 in /  1025.6 hPa Calm     96 % 0 in /  0 mm
00:49 49.5 °F /  9.7 °C 48.4 °F /  9.1 °C 30.29 in /  1025.6 hPa Calm     96 % 0 in /  0 mm
00:54 49.6 °F /  9.8 °C 48.5 °F /  9.2 °C 30.29 in /  1025.6 hPa Calm     96 % 0 in /  0 mm
00:59 49.7 °F /  9.8 °C 48.6 °F /  9.2 °C 30.29 in /  1025.6 hPa Calm     96 % 0 in /  0 mm
01:05 49.9 °F /  9.9 °C 48.8 °F /  9.3 °C 30.29 in /  1025.6 hPa Calm     96 % 0 in /  0 mm
01:09 50 °F /  10 °C 48.9 °F /  9.4 °C 30.29 in /  1025.6 hPa Calm     96 % 0 in /  0 mm
01:14 50.1 °F /  10.1 °C 49 °F /  9.4 °C 30.29 in /  1025.6 hPa Calm     96 % 0 in /  0 mm
01:19 50.1 °F /  10.1 °C 49 °F /  9.4 °C 30.28 in /  1025.3 hPa Calm     96 % 0 in /  0 mm
01:24 50.1 °F /  10.1 °C 49 °F /  9.4 °C 30.29 in /  1025.6 hPa Calm     96 % 0 in /  0 mm
01:30 50.1 °F /  10.1 °C 49 °F /  9.4 °C 30.29 in /  1025.6 hPa Calm     96 % 0 in /  0 mm
01:34 50.1 °F /  10.1 °C 49 °F /  9.4 °C 30.29 in /  1025.6 hPa Calm     96 % 0 in /  0 mm
01:39 50.2 °F /  10.1 °C 49.1 °F /  9.5 °C 30.29 in /  1025.6 hPa Calm     96 % 0 in /  0 mm
01:44 50.3 °F /  10.2 °C 49.2 °F /  9.6 °C 30.29 in /  1025.6 hPa Calm     96 % 0 in /  0 mm
01:49 50.4 °F /  10.2 °C 49.3 °F /  9.6 °C 30.29 in /  1025.6 hPa Calm     96 % 0 in /  0 mm
01:54 50.5 °F /  10.3 °C 49.4 °F /  9.7 °C 30.30 in /  1026 hPa Calm     96 % 0 in /  0 mm
02:00 50.6 °F /  10.3 °C 49.5 °F /  9.7 °C 30.29 in /  1025.6 hPa Calm     96 % 0 in /  0 mm
02:04 50.6 °F /  10.3 °C 49.5 °F /  9.7 °C 30.29 in /  1025.6 hPa Calm     96 % 0 in /  0 mm
02:09 50.6 °F /  10.3 °C 49.5 °F /  9.7 °C 30.29 in /  1025.6 hPa Calm     96 % 0 in /  0 mm
02:14 50.7 °F /  10.4 °C 49.6 °F /  9.8 °C 30.29 in /  1025.6 hPa Calm     96 % 0 in /  0 mm
02:19 50.7 °F /  10.4 °C 49.6 °F /  9.8 °C 30.30 in /  1026 hPa Calm     96 % 0 in /  0 mm
02:24 50.7 °F /  10.4 °C 49.6 °F /  9.8 °C 30.30 in /  1026 hPa Calm     96 % 0 in /  0 mm
02:29 50.7 °F /  10.4 °C 49.6 °F /  9.8 °C 30.30 in /  1026 hPa Calm     96 % 0 in /  0 mm
02:34 50.7 °F /  10.4 °C 49.6 °F /  9.8 °C 30.30 in /  1026 hPa Calm     96 % 0 in /  0 mm
02:39 50.7 °F /  10.4 °C 49.6 °F /  9.8 °C 30.30 in /  1026 hPa Calm     96 % 0 in /  0 mm
02:45 50.6 °F /  10.3 °C 49.5 °F /  9.7 °C 30.29 in /  1025.6 hPa Calm     96 % 0 in /  0 mm
02:49 50.5 °F /  10.3 °C 49.4 °F /  9.7 °C 30.29 in /  1025.6 hPa Calm     96 % 0 in /  0 mm
02:54 50.3 °F /  10.2 °C 49.2 °F /  9.6 °C 30.29 in /  1025.6 hPa Calm     96 % 0 in /  0 mm
02:59 50.2 °F /  10.1 °C 49.1 °F /  9.5 °C 30.29 in /  1025.6 hPa Calm     96 % 0 in /  0 mm
03:04 50.1 °F /  10.1 °C 49 °F /  9.4 °C 30.29 in /  1025.6 hPa Calm     96 % 0 in /  0 mm
03:09 49.8 °F /  9.9 °C 48.7 °F /  9.3 °C 30.29 in /  1025.6 hPa Calm     96 % 0 in /  0 mm
03:14 49.5 °F /  9.7 °C 48.4 °F /  9.1 °C 30.29 in /  1025.6 hPa Calm     96 % 0 in /  0 mm
03:19 49.1 °F /  9.5 °C 48 °F /  8.9 °C 30.29 in /  1025.6 hPa Calm     96 % 0 in /  0 mm
03:24 48.5 °F /  9.2 °C 47.1 °F /  8.4 °C 30.29 in /  1025.6 hPa Calm     95 % 0 in /  0 mm
03:30 48.2 °F /  9 °C 47.1 °F /  8.4 °C 30.29 in /  1025.6 hPa Calm     96 % 0 in /  0 mm
03:34 47.9 °F /  8.8 °C 46.8 °F /  8.2 °C 30.29 in /  1025.6 hPa Calm     96 % 0 in /  0 mm
03:39 47.8 °F /  8.8 °C 46.7 °F /  8.2 °C 30.29 in /  1025.6 hPa Calm     96 % 0 in /  0 mm
03:44 47.8 °F /  8.8 °C 46.7 °F /  8.2 °C 30.29 in /  1025.6 hPa Calm     96 % 0 in /  0 mm
03:50 47.9 °F /  8.8 °C 46.8 °F /  8.2 °C 30.29 in /  1025.6 hPa Calm     96 % 0 in /  0 mm
03:55 47.9 °F /  8.8 °C 46.8 °F /  8.2 °C 30.29 in /  1025.6 hPa Calm     96 % 0 in /  0 mm
03:59 47.8 °F /  8.8 °C 46.7 °F /  8.2 °C 30.29 in /  1025.6 hPa Calm     96 % 0 in /  0 mm
04:04 47.8 °F /  8.8 °C 46.7 °F /  8.2 °C 30.29 in /  1025.6 hPa Calm     96 % 0 in /  0 mm
04:09 47.7 °F /  8.7 °C 46.6 °F /  8.1 °C 30.29 in /  1025.6 hPa Calm     96 % 0 in /  0 mm
04:15 47.7 °F /  8.7 °C 46.6 °F /  8.1 °C 30.29 in /  1025.6 hPa Calm     96 % 0 in /  0 mm
04:19 47.7 °F /  8.7 °C 46.6 °F /  8.1 °C 30.29 in /  1025.6 hPa Calm     96 % 0 in /  0 mm
04:24 47.9 °F /  8.8 °C 46.8 °F /  8.2 °C 30.29 in /  1025.6 hPa Calm     96 % 0 in /  0 mm
04:29 48 °F /  8.9 °C 46.9 °F /  8.3 °C 30.30 in /  1026 hPa Calm     96 % 0 in /  0 mm
04:34 48 °F /  8.9 °C 46.9 °F /  8.3 °C 30.29 in /  1025.6 hPa Calm     96 % 0 in /  0 mm
04:39 48.1 °F /  8.9 °C 47 °F /  8.3 °C 30.29 in /  1025.6 hPa Calm     96 % 0 in /  0 mm
04:45 48.3 °F /  9.1 °C 47.5 °F /  8.6 °C 30.29 in /  1025.6 hPa Calm     97 % 0 in /  0 mm
04:49 48.5 °F /  9.2 °C 47.7 °F /  8.7 °C 30.30 in /  1026 hPa Calm     97 % 0 in /  0 mm
04:54 48.6 °F /  9.2 °C 47.8 °F /  8.8 °C 30.30 in /  1026 hPa Calm     97 % 0 in /  0 mm
04:59 48.6 °F /  9.2 °C 47.8 °F /  8.8 °C 30.30 in /  1026 hPa Calm     97 % 0 in /  0 mm
05:04 48.6 °F /  9.2 °C 47.8 °F /  8.8 °C 30.30 in /  1026 hPa Calm     97 % 0 in /  0 mm
05:09 48.6 °F /  9.2 °C 47.8 °F /  8.8 °C 30.30 in /  1026 hPa Calm     97 % 0 in /  0 mm
05:14 48.7 °F /  9.3 °C 47.9 °F /  8.8 °C 30.30 in /  1026 hPa Calm     97 % 0 in /  0 mm
05:19 48.7 °F /  9.3 °C 47.9 °F /  8.8 °C 30.30 in /  1026 hPa Calm     97 % 0 in /  0 mm
05:24 48.8 °F /  9.3 °C 48 °F /  8.9 °C 30.29 in /  1025.6 hPa Calm     97 % 0 in /  0 mm
05:30 48.8 °F /  9.3 °C 48 °F /  8.9 °C 30.30 in /  1026 hPa Calm     97 % 0 in /  0 mm
05:34 48.8 °F /  9.3 °C 48 °F /  8.9 °C 30.30 in /  1026 hPa Calm     97 % 0 in /  0 mm
05:39 48.8 °F /  9.3 °C 48 °F /  8.9 °C 30.30 in /  1026 hPa Calm     97 % 0 in /  0 mm
05:44 48.8 °F /  9.3 °C 48 °F /  8.9 °C 30.30 in /  1026 hPa Calm     97 % 0 in /  0 mm
05:49 48.9 °F /  9.4 °C 48.1 °F /  8.9 °C 30.30 in /  1026 hPa Calm     97 % 0 in /  0 mm
05:54 48.9 °F /  9.4 °C 48.1 °F /  8.9 °C 30.30 in /  1026 hPa Calm     97 % 0 in /  0 mm
05:59 48.9 °F /  9.4 °C 48.1 °F /  8.9 °C 30.30 in /  1026 hPa Calm     97 % 0 in /  0 mm
06:04 48.9 °F /  9.4 °C 48.1 °F /  8.9 °C 30.31 in /  1026.3 hPa Calm     97 % 0 in /  0 mm
06:09 49 °F /  9.4 °C 48.2 °F /  9 °C 30.30 in /  1026 hPa Calm     97 % 0 in /  0 mm
06:14 49 °F /  9.4 °C 48.2 °F /  9 °C 30.30 in /  1026 hPa Calm     97 % 0 in /  0 mm
06:19 49 °F /  9.4 °C 48.2 °F /  9 °C 30.30 in /  1026 hPa Calm     97 % 0 in /  0 mm
06:24 49 °F /  9.4 °C 48.2 °F /  9 °C 30.31 in /  1026.3 hPa Calm     97 % 0 in /  0 mm
06:29 48.9 °F /  9.4 °C 48.1 °F /  8.9 °C 30.30 in /  1026 hPa Calm     97 % 0 in /  0 mm
06:34 48.9 °F /  9.4 °C 48.1 °F /  8.9 °C 30.30 in /  1026 hPa Calm     97 % 0 in /  0 mm
06:39 48.8 °F /  9.3 °C 48 °F /  8.9 °C 30.30 in /  1026 hPa Calm     97 % 0 in /  0 mm
06:44 48.7 °F /  9.3 °C 47.9 °F /  8.8 °C 30.30 in /  1026 hPa Calm   0.1 mph /  0.2 km/h 97 % 0 in /  0 mm
06:49 48.6 °F /  9.2 °C 47.8 °F /  8.8 °C 30.30 in /  1026 hPa Calm     97 % 0 in /  0 mm
06:54 48.5 °F /  9.2 °C 47.7 °F /  8.7 °C 30.30 in /  1026 hPa Calm     97 % 0 in /  0 mm
06:59 48.4 °F /  9.1 °C 47.6 °F /  8.7 °C 30.30 in /  1026 hPa Calm     97 % 0 in /  0 mm
07:04 48.4 °F /  9.1 °C 47.6 °F /  8.7 °C 30.31 in /  1026.3 hPa Calm     97 % 0 in /  0 mm
07:09 48.4 °F /  9.1 °C 47.6 °F /  8.7 °C 30.31 in /  1026.3 hPa Calm     97 % 0 in /  0 mm
07:14 48.5 °F /  9.2 °C 47.7 °F /  8.7 °C 30.32 in /  1026.6 hPa Calm     97 % 0 in /  0 mm
07:19 48.6 °F /  9.2 °C 47.8 °F /  8.8 °C 30.32 in /  1026.6 hPa Calm     97 % 0 in /  0 mm
07:24 48.6 °F /  9.2 °C 47.8 °F /  8.8 °C 30.32 in /  1026.6 hPa Calm     97 % 0.01 in /  0.25 mm
07:29 48.7 °F /  9.3 °C 47.9 °F /  8.8 °C 30.32 in /  1026.6 hPa Calm     97 % 0.01 in /  0.25 mm
07:35 48.8 °F /  9.3 °C 48 °F /  8.9 °C 30.32 in /  1026.6 hPa Calm     97 % 0.01 in /  0.25 mm
07:39 48.8 °F /  9.3 °C 48 °F /  8.9 °C 30.33 in /  1027 hPa Calm     97 % 0.01 in /  0.25 mm
07:44 48.9 °F /  9.4 °C 48.1 °F /  8.9 °C 30.33 in /  1027 hPa Calm     97 % 0.01 in /  0.25 mm
07:49 49.1 °F /  9.5 °C 48.3 °F /  9.1 °C 30.33 in /  1027 hPa Calm     97 % 0.01 in /  0.25 mm
07:54 49.2 °F /  9.6 °C 48.4 °F /  9.1 °C 30.33 in /  1027 hPa Calm     97 % 0.01 in /  0.25 mm
07:59 49.4 °F /  9.7 °C 48.6 °F /  9.2 °C 30.33 in /  1027 hPa Calm     97 % 0.01 in /  0.25 mm
08:05 49.6 °F /  9.8 °C 48.8 °F /  9.3 °C 30.33 in /  1027 hPa Calm     97 % 0.01 in /  0.25 mm
08:10 49.7 °F /  9.8 °C 48.9 °F /  9.4 °C 30.33 in /  1027 hPa Calm     97 % 0.01 in /  0.25 mm
08:14 49.9 °F /  9.9 °C 49.1 °F /  9.5 °C 30.34 in /  1027.3 hPa Calm     97 % 0.01 in /  0.25 mm
08:19 50 °F /  10 °C 49.2 °F /  9.6 °C 30.34 in /  1027.3 hPa Calm     97 % 0.01 in /  0.25 mm
08:24 50.1 °F /  10.1 °C 49.3 °F /  9.6 °C 30.34 in /  1027.3 hPa Calm     97 % 0 in /  0 mm
08:29 50.2 °F /  10.1 °C 49.4 °F /  9.7 °C 30.34 in /  1027.3 hPa SSE 1.2 mph /  1.9 km/h   97 % 0 in /  0 mm
08:34 50.3 °F /  10.2 °C 49.5 °F /  9.7 °C 30.34 in /  1027.3 hPa South 1.2 mph /  1.9 km/h 0.1 mph /  0.2 km/h 97 % 0 in /  0 mm
08:39 50.4 °F /  10.2 °C 49.6 °F /  9.8 °C 30.34 in /  1027.3 hPa Calm     97 % 0 in /  0 mm
08:44 50.5 °F /  10.3 °C 49.7 °F /  9.8 °C 30.34 in /  1027.3 hPa SE 1 mph /  1.6 km/h   97 % 0 in /  0 mm
08:49 50.6 °F /  10.3 °C 49.8 °F /  9.9 °C 30.34 in /  1027.3 hPa Calm     97 % 0 in /  0 mm
08:54 50.8 °F /  10.4 °C 50 °F /  10 °C 30.35 in /  1027.7 hPa Calm     97 % 0 in /  0 mm
08:59 50.8 °F /  10.4 °C 50 °F /  10 °C 30.35 in /  1027.7 hPa SE 1.2 mph /  1.9 km/h 0.1 mph /  0.2 km/h 97 % 0 in /  0 mm
09:05 51 °F /  10.6 °C 50.2 °F /  10.1 °C 30.35 in /  1027.7 hPa Calm     97 % 0 in /  0 mm
09:09 51.2 °F /  10.7 °C 50.4 °F /  10.2 °C 30.35 in /  1027.7 hPa SE 1.2 mph /  1.9 km/h   97 % 0 in /  0 mm
09:14 51.4 °F /  10.8 °C 50.6 °F /  10.3 °C 30.35 in /  1027.7 hPa ESE 1.2 mph /  1.9 km/h   97 % 0 in /  0 mm
09:19 51.6 °F /  10.9 °C 50.8 °F /  10.4 °C 30.35 in /  1027.7 hPa SSE 1.2 mph /  1.9 km/h   97 % 0 in /  0 mm
09:24 51.7 °F /  10.9 °C 50.9 °F /  10.5 °C 30.35 in /  1027.7 hPa SSE 1.2 mph /  1.9 km/h 0.1 mph /  0.2 km/h 97 % 0 in /  0 mm
09:29 52.1 °F /  11.2 °C 51.3 °F /  10.7 °C 30.36 in /  1028 hPa Calm     97 % 0 in /  0 mm
09:34 52.3 °F /  11.3 °C 51.5 °F /  10.8 °C 30.36 in /  1028 hPa SE 1.2 mph /  1.9 km/h   97 % 0 in /  0 mm
09:39 52.6 °F /  11.4 °C 51.8 °F /  11 °C 30.36 in /  1028 hPa Calm     97 % 0 in /  0 mm
09:44 52.9 °F /  11.6 °C 52.1 °F /  11.2 °C 30.36 in /  1028 hPa Calm     97 % 0 in /  0 mm
09:49 53.3 °F /  11.8 °C 52.2 °F /  11.2 °C 30.36 in /  1028 hPa Calm     96 % 0 in /  0 mm
09:54 53.6 °F /  12 °C 52.2 °F /  11.2 °C 30.36 in /  1028 hPa SE 1.2 mph /  1.9 km/h   95 % 0 in /  0 mm
09:59 54.1 °F /  12.3 °C 52.7 °F /  11.5 °C 30.36 in /  1028 hPa Calm     95 % 0 in /  0 mm
10:04 54.6 °F /  12.6 °C 52.9 °F /  11.6 °C 30.36 in /  1028 hPa Calm     94 % 0 in /  0 mm
10:09 54.9 °F /  12.7 °C 52.6 °F /  11.4 °C 30.36 in /  1028 hPa South 1.2 mph /  1.9 km/h 0.2 mph /  0.3 km/h 92 % 0 in /  0 mm
10:14 55.2 °F /  12.9 °C 52.6 °F /  11.4 °C 30.36 in /  1028 hPa Calm     91 % 0 in /  0 mm
10:19 55.6 °F /  13.1 °C 52.4 °F /  11.3 °C 30.36 in /  1028 hPa SSW 2.3 mph /  3.7 km/h   89 % 0 in /  0 mm
10:24 55.8 °F /  13.2 °C 52.3 °F /  11.3 °C 30.36 in /  1028 hPa SSE 2 mph /  3.2 km/h 0.4 mph /  0.6 km/h 88 % 0 in /  0 mm
10:29 56 °F /  13.3 °C 52.2 °F /  11.2 °C 30.36 in /  1028 hPa SSE 2 mph /  3.2 km/h 0.3 mph /  0.5 km/h 87 % 0 in /  0 mm
10:34 56.2 °F /  13.4 °C 51.7 °F /  10.9 °C 30.36 in /  1028 hPa South 1.2 mph /  1.9 km/h 0.4 mph /  0.6 km/h 85 % 0 in /  0 mm
10:39 56.5 °F /  13.6 °C 52 °F /  11.1 °C 30.36 in /  1028 hPa South 1 mph /  1.6 km/h 0.4 mph /  0.6 km/h 85 % 0 in /  0 mm
10:45 57 °F /  13.9 °C 52.2 °F /  11.2 °C 30.35 in /  1027.7 hPa ESE 2.3 mph /  3.7 km/h 0.5 mph /  0.8 km/h 84 % 0 in /  0 mm
10:49 57.3 °F /  14.1 °C 51.9 °F /  11.1 °C 30.36 in /  1028 hPa SSE 1.2 mph /  1.9 km/h   82 % 0 in /  0 mm
10:54 57.6 °F /  14.2 °C 52.5 °F /  11.4 °C 30.36 in /  1028 hPa SSW 1.2 mph /  1.9 km/h 0.5 mph /  0.8 km/h 83 % 0 in /  0 mm
10:59 57.9 °F /  14.4 °C 52.1 °F /  11.2 °C 30.35 in /  1027.7 hPa SW 1.2 mph /  1.9 km/h 0.3 mph /  0.5 km/h 81 % 0 in /  0 mm
11:04 58.3 °F /  14.6 °C 52.5 °F /  11.4 °C 30.35 in /  1027.7 hPa SSE 2.3 mph /  3.7 km/h   81 % 0 in /  0 mm
11:09 58.7 °F /  14.8 °C 52.5 °F /  11.4 °C 30.35 in /  1027.7 hPa SSW 3.5 mph /  5.6 km/h 0.9 mph /  1.4 km/h 80 % 0 in /  0 mm
11:14 58.8 °F /  14.9 °C 52.3 °F /  11.3 °C 30.34 in /  1027.3 hPa SE 3.5 mph /  5.6 km/h 0.9 mph /  1.4 km/h 79 % 0 in /  0 mm
11:20 59.3 °F /  15.2 °C 53.1 °F /  11.7 °C 30.34 in /  1027.3 hPa South 3.5 mph /  5.6 km/h 1.2 mph /  1.9 km/h 80 % 0 in /  0 mm
11:25 59.5 °F /  15.3 °C 52.6 °F /  11.4 °C 30.34 in /  1027.3 hPa SSE 2.3 mph /  3.7 km/h 0.4 mph /  0.6 km/h 78 % 0 in /  0 mm
11:29 59.5 °F /  15.3 °C 52.3 °F /  11.3 °C 30.33 in /  1027 hPa SE 2.3 mph /  3.7 km/h 0.1 mph /  0.2 km/h 77 % 0 in /  0 mm
11:34 59.6 °F /  15.3 °C 52.7 °F /  11.5 °C 30.33 in /  1027 hPa SW 3 mph /  4.8 km/h 0.3 mph /  0.5 km/h 78 % 0 in /  0 mm
11:39 59.8 °F /  15.4 °C 52.6 °F /  11.4 °C 30.33 in /  1027 hPa East 1.2 mph /  1.9 km/h 0.7 mph /  1.1 km/h 77 % 0 in /  0 mm
11:44 59.9 °F /  15.5 °C 52.7 °F /  11.5 °C 30.33 in /  1027 hPa ESE 2.3 mph /  3.7 km/h 0.8 mph /  1.3 km/h 77 % 0 in /  0 mm
11:49 60.1 °F /  15.6 °C 52.5 °F /  11.4 °C 30.32 in /  1026.6 hPa East 1.2 mph /  1.9 km/h 0.3 mph /  0.5 km/h 76 % 0 in /  0 mm
11:54 60.4 °F /  15.8 °C 52.8 °F /  11.6 °C 30.32 in /  1026.6 hPa SSE 1.2 mph /  1.9 km/h 0.9 mph /  1.4 km/h 76 % 0 in /  0 mm
11:59 60.5 °F /  15.8 °C 52.2 °F /  11.2 °C 30.32 in /  1026.6 hPa WSW 1.2 mph /  1.9 km/h 0.7 mph /  1.1 km/h 74 % 0 in /  0 mm
12:04 60.2 °F /  15.7 °C 51.9 °F /  11.1 °C 30.32 in /  1026.6 hPa Calm   1 mph /  1.6 km/h 74 % 0 in /  0 mm
12:09 60.2 °F /  15.7 °C 52.2 °F /  11.2 °C 30.32 in /  1026.6 hPa Calm     75 % 0 in /  0 mm
12:14 60.4 °F /  15.8 °C 52.4 °F /  11.3 °C 30.32 in /  1026.6 hPa SE 2.3 mph /  3.7 km/h   75 % 0 in /  0 mm
12:19 60.8 °F /  16 °C 52.5 °F /  11.4 °C 30.32 in /  1026.6 hPa SW 1.2 mph /  1.9 km/h 0.4 mph /  0.6 km/h 74 % 0 in /  0 mm
12:25 61 °F /  16.1 °C 52.3 °F /  11.3 °C 30.32 in /  1026.6 hPa Calm     73 % 0 in /  0 mm
12:30 60.8 °F /  16 °C 51.7 °F /  10.9 °C 30.31 in /  1026.3 hPa Calm     72 % 0 in /  0 mm
12:34 60.8 °F /  16 °C 52.1 °F /  11.2 °C 30.31 in /  1026.3 hPa Calm     73 % 0 in /  0 mm
12:39 61.4 °F /  16.3 °C 52.3 °F /  11.3 °C 30.31 in /  1026.3 hPa South 1.2 mph /  1.9 km/h 0.3 mph /  0.5 km/h 72 % 0 in /  0 mm
12:44 61.4 °F /  16.3 °C 51.9 °F /  11.1 °C 30.31 in /  1026.3 hPa Calm     71 % 0 in /  0 mm
12:49 61.2 °F /  16.2 °C 52.1 °F /  11.2 °C 30.31 in /  1026.3 hPa NW 2.3 mph /  3.7 km/h 0.5 mph /  0.8 km/h 72 % 0 in /  0 mm
12:54 60.8 °F /  16 °C 51.7 °F /  10.9 °C 30.31 in /  1026.3 hPa Calm     72 % 0 in /  0 mm
12:59 60.7 °F /  15.9 °C 52.4 °F /  11.3 °C 30.31 in /  1026.3 hPa NW 2.3 mph /  3.7 km/h 0.6 mph /  1 km/h 74 % 0 in /  0 mm
13:04 60.4 °F /  15.8 °C 51.7 °F /  10.9 °C 30.31 in /  1026.3 hPa Calm     73 % 0 in /  0 mm
13:10 60.3 °F /  15.7 °C 52 °F /  11.1 °C 30.31 in /  1026.3 hPa Calm     74 % 0 in /  0 mm
13:15 60.9 °F /  16.1 °C 52.2 °F /  11.2 °C 30.31 in /  1026.3 hPa Calm     73 % 0 in /  0 mm
13:20 61.5 °F /  16.4 °C 52.4 °F /  11.3 °C 30.31 in /  1026.3 hPa SE 1.2 mph /  1.9 km/h 0.2 mph /  0.3 km/h 72 % 0 in /  0 mm
13:24 61.9 °F /  16.6 °C 52.4 °F /  11.3 °C 30.31 in /  1026.3 hPa NNW 3.5 mph /  5.6 km/h 0.1 mph /  0.2 km/h 71 % 0 in /  0 mm
13:29 61.7 °F /  16.5 °C 52.2 °F /  11.2 °C 30.31 in /  1026.3 hPa North 1.2 mph /  1.9 km/h   71 % 0 in /  0 mm
13:34 62 °F /  16.7 °C 52.5 °F /  11.4 °C 30.30 in /  1026 hPa Calm     71 % 0 in /  0 mm
13:39 62.3 °F /  16.8 °C 52.4 °F /  11.3 °C 30.30 in /  1026 hPa NW 2 mph /  3.2 km/h 0.6 mph /  1 km/h 70 % 0 in /  0 mm
13:44 62 °F /  16.7 °C 51.7 °F /  10.9 °C 30.30 in /  1026 hPa WNW 3.5 mph /  5.6 km/h 2 mph /  3.2 km/h 69 % 0 in /  0 mm
13:49 61.8 °F /  16.6 °C 51.9 °F /  11.1 °C 30.30 in /  1026 hPa NW 1 mph /  1.6 km/h 0.3 mph /  0.5 km/h 70 % 0 in /  0 mm
13:54 61.5 °F /  16.4 °C 51.6 °F /  10.9 °C 30.30 in /  1026 hPa WNW 1.2 mph /  1.9 km/h 0.8 mph /  1.3 km/h 70 % 0 in /  0 mm
13:59 61.4 °F /  16.3 °C 51.5 °F /  10.8 °C 30.30 in /  1026 hPa NW 2 mph /  3.2 km/h 0.7 mph /  1.1 km/h 70 % 0 in /  0 mm
14:04 61.3 °F /  16.3 °C 51.4 °F /  10.8 °C 30.30 in /  1026 hPa Calm     70 % 0 in /  0 mm
14:09 61.1 °F /  16.2 °C 51.2 °F /  10.7 °C 30.30 in /  1026 hPa NW 2.3 mph /  3.7 km/h   70 % 0 in /  0 mm
14:14 60.8 °F /  16 °C 51.3 °F /  10.7 °C 30.30 in /  1026 hPa North 2.3 mph /  3.7 km/h   71 % 0 in /  0 mm
14:20 60.7 °F /  15.9 °C 51.6 °F /  10.9 °C 30.30 in /  1026 hPa Calm     72 % 0 in /  0 mm
14:25 60.6 °F /  15.9 °C 51.5 °F /  10.8 °C 30.30 in /  1026 hPa Calm     72 % 0 in /  0 mm
14:30 60.3 °F /  15.7 °C 51.6 °F /  10.9 °C 30.30 in /  1026 hPa Calm     73 % 0 in /  0 mm
14:34 60.3 °F /  15.7 °C 51.6 °F /  10.9 °C 30.30 in /  1026 hPa Calm     73 % 0 in /  0 mm
14:39 60.1 °F /  15.6 °C 51.4 °F /  10.8 °C 30.30 in /  1026 hPa Calm     73 % 0 in /  0 mm
14:44 60 °F /  15.6 °C 51.3 °F /  10.7 °C 30.30 in /  1026 hPa Calm     73 % 0 in /  0 mm
14:49 59.9 °F /  15.5 °C 51.6 °F /  10.9 °C 30.30 in /  1026 hPa Calm     74 % 0 in /  0 mm
14:54 60 °F /  15.6 °C 51.3 °F /  10.7 °C 30.30 in /  1026 hPa Calm     73 % 0 in /  0 mm
14:59 60.1 °F /  15.6 °C 51.4 °F /  10.8 °C 30.30 in /  1026 hPa Calm   0.3 mph /  0.5 km/h 73 % 0 in /  0 mm
15:04 60 °F /  15.6 °C 51.3 °F /  10.7 °C 30.30 in /  1026 hPa Calm     73 % 0 in /  0 mm
15:09 59.9 °F /  15.5 °C 51.6 °F /  10.9 °C 30.30 in /  1026 hPa Calm     74 % 0 in /  0 mm
15:14 59.9 °F /  15.5 °C 51.6 °F /  10.9 °C 30.30 in /  1026 hPa Calm     74 % 0 in /  0 mm
15:19 59.8 °F /  15.4 °C 51.1 °F /  10.6 °C 30.30 in /  1026 hPa Calm     73 % 0 in /  0 mm
15:24 59.8 °F /  15.4 °C 51.1 °F /  10.6 °C 30.30 in /  1026 hPa Calm     73 % 0 in /  0 mm
15:29 59.8 °F /  15.4 °C 51.1 °F /  10.6 °C 30.30 in /  1026 hPa Calm     73 % 0 in /  0 mm
15:35 59.7 °F /  15.4 °C 51 °F /  10.6 °C 30.30 in /  1026 hPa Calm     73 % 0 in /  0 mm
15:40 59.7 °F /  15.4 °C 51 °F /  10.6 °C 30.30 in /  1026 hPa Calm     73 % 0 in /  0 mm
15:44 59.7 °F /  15.4 °C 51 °F /  10.6 °C 30.30 in /  1026 hPa Calm     73 % 0 in /  0 mm
15:49 59.7 °F /  15.4 °C 51.4 °F /  10.8 °C 30.30 in /  1026 hPa Calm     74 % 0 in /  0 mm
15:54 59.6 °F /  15.3 °C 51.3 °F /  10.7 °C 30.30 in /  1026 hPa NNW 1.2 mph /  1.9 km/h   74 % 0 in /  0 mm
15:59 59.5 °F /  15.3 °C 51.6 °F /  10.9 °C 30.30 in /  1026 hPa NW 1.2 mph /  1.9 km/h   75 % 0 in /  0 mm
16:04 59.3 °F /  15.2 °C 51.7 °F /  10.9 °C 30.30 in /  1026 hPa Calm     76 % 0 in /  0 mm
16:09 59.1 °F /  15.1 °C 51.9 °F /  11.1 °C 30.30 in /  1026 hPa Calm   0.1 mph /  0.2 km/h 77 % 0 in /  0 mm
16:15 58.8 °F /  14.9 °C 51.6 °F /  10.9 °C 30.30 in /  1026 hPa Calm     77 % 0 in /  0 mm
16:20 58.5 °F /  14.7 °C 51.7 °F /  10.9 °C 30.30 in /  1026 hPa Calm     78 % 0 in /  0 mm
16:24 58.1 °F /  14.5 °C 51.3 °F /  10.7 °C 30.30 in /  1026 hPa Calm     78 % 0 in /  0 mm
16:29 57.8 °F /  14.3 °C 51.3 °F /  10.7 °C 30.30 in /  1026 hPa Calm     79 % 0 in /  0 mm
16:34 57.4 °F /  14.1 °C 51.3 °F /  10.7 °C 30.30 in /  1026 hPa Calm     80 % 0 in /  0 mm
16:39 57 °F /  13.9 °C 51.2 °F /  10.7 °C 30.30 in /  1026 hPa Calm     81 % 0 in /  0 mm
16:44 56.6 °F /  13.7 °C 51.5 °F /  10.8 °C 30.29 in /  1025.6 hPa Calm     83 % 0 in /  0 mm
16:49 56.1 °F /  13.4 °C 51 °F /  10.6 °C 30.29 in /  1025.6 hPa Calm     83 % 0 in /  0 mm
16:55 55.7 °F /  13.2 °C 50.6 °F /  10.3 °C 30.29 in /  1025.6 hPa Calm     83 % 0 in /  0 mm
16:59 55.3 °F /  12.9 °C 50.9 °F /  10.5 °C 30.29 in /  1025.6 hPa Calm     85 % 0 in /  0 mm
17:04 54.9 °F /  12.7 °C 50.5 °F /  10.3 °C 30.29 in /  1025.6 hPa Calm     85 % 0 in /  0 mm
17:09 54.6 °F /  12.6 °C 50.5 °F /  10.3 °C 30.29 in /  1025.6 hPa Calm     86 % 0 in /  0 mm
17:14 54.2 °F /  12.3 °C 50.1 °F /  10.1 °C 30.29 in /  1025.6 hPa Calm     86 % 0 in /  0 mm
17:19 53.8 °F /  12.1 °C 49.7 °F /  9.8 °C 30.30 in /  1026 hPa Calm     86 % 0 in /  0 mm
17:24 53.5 °F /  11.9 °C 49.7 °F /  9.8 °C 30.30 in /  1026 hPa Calm     87 % 0 in /  0 mm
17:29 53.2 °F /  11.8 °C 49.7 °F /  9.8 °C 30.30 in /  1026 hPa Calm     88 % 0 in /  0 mm
17:34 52.9 °F /  11.6 °C 49.4 °F /  9.7 °C 30.30 in /  1026 hPa Calm     88 % 0 in /  0 mm
17:40 52.5 °F /  11.4 °C 49 °F /  9.4 °C 30.30 in /  1026 hPa Calm     88 % 0 in /  0 mm
17:44 52.2 °F /  11.2 °C 49.1 °F /  9.5 °C 30.30 in /  1026 hPa Calm     89 % 0 in /  0 mm
17:49 51.9 °F /  11.1 °C 48.8 °F /  9.3 °C 30.31 in /  1026.3 hPa Calm     89 % 0 in /  0 mm
17:55 51.6 °F /  10.9 °C 48.5 °F /  9.2 °C 30.31 in /  1026.3 hPa Calm     89 % 0 in /  0 mm
17:59 51.2 °F /  10.7 °C 48.1 °F /  8.9 °C 30.31 in /  1026.3 hPa Calm     89 % 0 in /  0 mm
18:04 51 °F /  10.6 °C 48.2 °F /  9 °C 30.31 in /  1026.3 hPa Calm     90 % 0 in /  0 mm
18:09 50.9 °F /  10.5 °C 48.1 °F /  8.9 °C 30.31 in /  1026.3 hPa Calm     90 % 0 in /  0 mm
18:14 50.7 °F /  10.4 °C 47.9 °F /  8.8 °C 30.31 in /  1026.3 hPa Calm     90 % 0 in /  0 mm
18:19 50.5 °F /  10.3 °C 47.7 °F /  8.7 °C 30.31 in /  1026.3 hPa Calm     90 % 0 in /  0 mm
18:24 50.5 °F /  10.3 °C 48.3 °F /  9.1 °C 30.32 in /  1026.6 hPa Calm     92 % 0 in /  0 mm
18:29 50.8 °F /  10.4 °C 48.6 °F /  9.2 °C 30.32 in /  1026.6 hPa Calm     92 % 0 in /  0 mm
18:34 51.1 °F /  10.6 °C 48.9 °F /  9.4 °C 30.32 in /  1026.6 hPa Calm     92 % 0 in /  0 mm
18:39 51.2 °F /  10.7 °C 48.7 °F /  9.3 °C 30.32 in /  1026.6 hPa Calm     91 % 0 in /  0 mm
18:44 51.1 °F /  10.6 °C 48.6 °F /  9.2 °C 30.32 in /  1026.6 hPa Calm     91 % 0 in /  0 mm
18:49 51 °F /  10.6 °C 48.5 °F /  9.2 °C 30.32 in /  1026.6 hPa Calm     91 % 0 in /  0 mm
18:54 51.3 °F /  10.7 °C 49.1 °F /  9.5 °C 30.32 in /  1026.6 hPa Calm     92 % 0 in /  0 mm
18:59 51.4 °F /  10.8 °C 49.2 °F /  9.6 °C 30.32 in /  1026.6 hPa Calm     92 % 0 in /  0 mm
19:04 51.5 °F /  10.8 °C 49.3 °F /  9.6 °C 30.32 in /  1026.6 hPa Calm     92 % 0 in /  0 mm
19:09 51.6 °F /  10.9 °C 49.4 °F /  9.7 °C 30.32 in /  1026.6 hPa Calm     92 % 0 in /  0 mm
19:14 51.6 °F /  10.9 °C 49.4 °F /  9.7 °C 30.32 in /  1026.6 hPa Calm     92 % 0 in /  0 mm
19:19 51.7 °F /  10.9 °C 49.5 °F /  9.7 °C 30.32 in /  1026.6 hPa Calm     92 % 0 in /  0 mm
19:24 51.8 °F /  11 °C 49.3 °F /  9.6 °C 30.32 in /  1026.6 hPa Calm     91 % 0 in /  0 mm
19:29 51.9 °F /  11.1 °C 49.6 °F /  9.8 °C 30.32 in /  1026.6 hPa Calm     92 % 0 in /  0 mm
19:34 51.9 °F /  11.1 °C 49.6 °F /  9.8 °C 30.32 in /  1026.6 hPa Calm     92 % 0 in /  0 mm
19:39 51.9 °F /  11.1 °C 49.6 °F /  9.8 °C 30.32 in /  1026.6 hPa Calm     92 % 0 in /  0 mm
19:44 51.9 °F /  11.1 °C 49.6 °F /  9.8 °C 30.32 in /  1026.6 hPa Calm     92 % 0 in /  0 mm
19:49 51.9 °F /  11.1 °C 49.6 °F /  9.8 °C 30.32 in /  1026.6 hPa Calm     92 % 0 in /  0 mm
19:54 51.9 °F /  11.1 °C 49.6 °F /  9.8 °C 30.32 in /  1026.6 hPa Calm     92 % 0 in /  0 mm
19:59 52 °F /  11.1 °C 49.7 °F /  9.8 °C 30.32 in /  1026.6 hPa Calm     92 % 0 in /  0 mm
20:04 52 °F /  11.1 °C 49.7 °F /  9.8 °C 30.32 in /  1026.6 hPa Calm     92 % 0 in /  0 mm
20:09 52.1 °F /  11.2 °C 49.8 °F /  9.9 °C 30.32 in /  1026.6 hPa Calm     92 % 0 in /  0 mm
20:14 52 °F /  11.1 °C 49.7 °F /  9.8 °C 30.32 in /  1026.6 hPa Calm     92 % 0 in /  0 mm
Park Place, Exeter, Tulare County, California, USA
Compliments of Weather Underground - 2.5 mb